createdAt,value
2019-01-19T00:01:02.408Z,98938.45
2019-01-19T00:03:46.540Z,98936.30
2019-01-19T00:06:21.163Z,98939.67
2019-01-19T00:08:50.510Z,98945.22
2019-01-19T00:11:38.859Z,98947.47
2019-01-19T00:14:10.561Z,98947.23
2019-01-19T00:16:50.969Z,98950.16
2019-01-19T00:19:46.662Z,98951.48
2019-01-19T00:22:47.123Z,98958.52
2019-01-19T00:25:19.005Z,98966.95
2019-01-19T00:27:59.441Z,98973.29
2019-01-19T00:30:31.125Z,98979.67
2019-01-19T00:33:08.473Z,98974.27
2019-01-19T00:35:58.163Z,98975.71
2019-01-19T00:38:41.802Z,98977.13
2019-01-19T00:41:42.125Z,98975.71
2019-01-19T00:44:13.891Z,98976.66
2019-01-19T00:46:48.614Z,98980.48
2019-01-19T00:49:19.143Z,98976.78
2019-01-19T00:52:10.354Z,98980.59
2019-01-19T00:54:41.999Z,98980.34
2019-01-19T00:57:22.823Z,98984.19
2019-01-19T00:59:52.566Z,98982.91
2019-01-19T01:02:32.952Z,98980.27
2019-01-19T01:05:13.513Z,98989.86
2019-01-19T01:08:06.370Z,98986.15
2019-01-19T01:10:43.657Z,98986.15
2019-01-19T01:13:24.327Z,98981.59
2019-01-19T01:15:59.156Z,98987.13
2019-01-19T01:18:39.158Z,98988.59
2019-01-19T01:21:22.750Z,98992.16
2019-01-19T01:24:00.689Z,98996.72
2019-01-19T01:26:38.133Z,98986.67
2019-01-19T01:29:24.701Z,98989.42
2019-01-19T01:31:58.964Z,98996.00
2019-01-19T01:34:55.087Z,98997.09
2019-01-19T01:37:32.379Z,99004.02
2019-01-19T01:40:12.836Z,98999.34
2019-01-19T01:42:47.419Z,99003.05
2019-01-19T01:45:21.924Z,99014.41
2019-01-19T01:48:20.965Z,99022.77
2019-01-19T01:51:01.764Z,99027.31
2019-01-19T01:53:36.477Z,99029.87
2019-01-19T01:56:07.715Z,99031.92
2019-01-19T01:59:02.011Z,99030.63
2019-01-19T02:01:39.354Z,99027.88
2019-01-19T02:04:34.097Z,99023.08
2019-01-19T02:07:08.689Z,99028.23
2019-01-19T02:09:42.930Z,99033.64
2019-01-19T02:12:26.812Z,99041.64
2019-01-19T02:15:04.037Z,99047.17
2019-01-19T02:17:38.891Z,99052.88
2019-01-19T02:20:25.401Z,99049.36
2019-01-19T02:23:12.057Z,99060.38
2019-01-19T02:26:04.647Z,99063.28
2019-01-19T02:28:36.817Z,99061.82
2019-01-19T02:31:32.223Z,99063.78
2019-01-19T02:34:12.378Z,99049.27
2019-01-19T02:37:02.567Z,99056.13
2019-01-19T02:39:43.234Z,99062.87
2019-01-19T02:42:17.851Z,99070.98
2019-01-19T02:44:49.824Z,99083.72
2019-01-19T02:47:24.242Z,99079.97
2019-01-19T02:50:14.162Z,99079.03
2019-01-19T02:52:51.616Z,99080.09
2019-01-19T02:55:40.474Z,99081.34
2019-01-19T02:58:21.041Z,99089.02
2019-01-19T03:01:13.955Z,99086.81
2019-01-19T03:04:00.600Z,99100.38
2019-01-19T03:06:48.948Z,99102.02
2019-01-19T03:09:20.724Z,99103.72
2019-01-19T03:11:55.641Z,99109.95
2019-01-19T03:14:27.400Z,99117.44
2019-01-19T03:17:21.107Z,99120.33
2019-01-19T03:20:01.732Z,99119.15
2019-01-19T03:22:39.639Z,99118.79
2019-01-19T03:25:17.469Z,99129.63
2019-01-19T03:28:13.566Z,99142.52
2019-01-19T03:31:12.461Z,99148.25
2019-01-19T03:33:47.390Z,99146.48
2019-01-19T03:36:52.429Z,99143.09
2019-01-19T03:39:30.143Z,99151.38
2019-01-19T03:42:16.307Z,99161.97
2019-01-19T03:44:48.204Z,99155.88
2019-01-19T03:47:40.744Z,99160.64
2019-01-19T03:50:15.354Z,99174.70
2019-01-19T03:52:49.874Z,99177.38
2019-01-19T03:55:55.216Z,99174.03
2019-01-19T03:58:26.866Z,99173.90
2019-01-19T04:01:01.128Z,99182.11
2019-01-19T04:03:53.838Z,99187.23
2019-01-19T04:06:28.575Z,99190.71
2019-01-19T04:09:03.443Z,99205.86
2019-01-19T04:12:05.780Z,99195.01
2019-01-19T04:14:43.264Z,99205.36
2019-01-19T04:17:40.728Z,99214.70
2019-01-19T04:20:27.371Z,99213.17
2019-01-19T04:22:57.455Z,99220.81
2019-01-19T04:25:29.371Z,99220.25
2019-01-19T04:27:59.737Z,99216.78
2019-01-19T04:30:29.035Z,99217.14
2019-01-19T04:32:57.840Z,99215.94
2019-01-19T04:35:26.620Z,99227.02
2019-01-19T04:37:55.499Z,99231.11
2019-01-19T04:40:24.289Z,99231.17
2019-01-19T04:42:53.388Z,99242.77
2019-01-19T04:45:22.377Z,99244.76
2019-01-19T04:47:51.119Z,99254.08
2019-01-19T04:50:19.866Z,99250.73
2019-01-19T04:52:49.049Z,99252.13
2019-01-19T04:55:17.836Z,99253.05
2019-01-19T04:57:46.571Z,99253.05
2019-01-19T05:00:19.741Z,99257.39
2019-01-19T05:02:48.605Z,99261.21
2019-01-19T05:05:17.493Z,99264.28
2019-01-19T05:07:46.715Z,99264.28
2019-01-19T05:10:15.459Z,99273.81
2019-01-19T05:12:44.369Z,99274.58
2019-01-19T05:15:16.037Z,99287.22
2019-01-19T05:17:45.224Z,99284.47
2019-01-19T05:20:14.864Z,99287.39
2019-01-19T05:22:43.924Z,99297.33
2019-01-19T05:25:13.327Z,99297.33
2019-01-19T05:27:42.115Z,99305.77
2019-01-19T05:30:13.991Z,99301.54
2019-01-19T05:32:42.766Z,99309.97
2019-01-19T05:35:11.759Z,99309.97
2019-01-19T05:37:40.541Z,99312.98
2019-01-19T05:40:11.591Z,99314.70
2019-01-19T05:42:40.419Z,99319.72
2019-01-19T05:45:14.186Z,99315.39
2019-01-19T05:47:42.976Z,99321.55
2019-01-19T05:50:20.159Z,99317.12
2019-01-19T05:52:48.894Z,99313.64
2019-01-19T05:55:17.635Z,99328.98
2019-01-19T05:57:46.517Z,99327.39
2019-01-19T06:00:18.103Z,99332.23
2019-01-19T06:02:46.960Z,99328.63
2019-01-19T06:05:16.280Z,99339.58
2019-01-19T06:07:45.056Z,99345.95
2019-01-19T06:10:15.999Z,99345.95
2019-01-19T06:12:44.883Z,99349.00
2019-01-19T06:15:16.028Z,99353.69
2019-01-19T06:17:44.811Z,99352.87
2019-01-19T06:20:15.881Z,99358.75
2019-01-19T06:22:44.740Z,99360.34
2019-01-19T06:25:15.602Z,99372.62
2019-01-19T06:27:44.877Z,99373.45
2019-01-19T06:30:19.396Z,99371.14
2019-01-19T06:32:48.343Z,99382.47
2019-01-19T06:35:18.305Z,99386.31
2019-01-19T06:37:47.411Z,99386.31
2019-01-19T06:40:19.697Z,99388.96
2019-01-19T06:42:48.563Z,99385.22
2019-01-19T06:45:24.827Z,99398.07
2019-01-19T06:47:53.818Z,99398.07
2019-01-19T06:50:22.611Z,99398.44
2019-01-19T06:52:51.356Z,99408.03
2019-01-19T06:55:23.073Z,99339.67
2019-01-19T06:57:51.814Z,99413.81
2019-01-19T07:00:20.756Z,99416.03
2019-01-19T07:02:49.904Z,99419.16
2019-01-19T07:05:18.741Z,99418.12
2019-01-19T07:07:47.530Z,99420.98
2019-01-19T07:10:22.230Z,99420.77
2019-01-19T07:12:51.044Z,99417.55
2019-01-19T07:15:19.829Z,99415.01
2019-01-19T07:17:48.715Z,99408.14
2019-01-19T07:20:23.041Z,99418.51
2019-01-19T07:22:51.829Z,99424.03
2019-01-19T07:25:20.716Z,99424.41
2019-01-19T07:27:49.504Z,99428.72
2019-01-19T07:30:18.408Z,99415.97
2019-01-19T07:32:48.007Z,99432.59
2019-01-19T07:35:17.406Z,99434.41
2019-01-19T07:37:46.191Z,99438.66
2019-01-19T07:40:16.894Z,99448.47
2019-01-19T07:42:46.835Z,99447.50
2019-01-19T07:45:16.255Z,99452.20
2019-01-19T07:47:46.171Z,99456.30
2019-01-19T07:50:16.991Z,99463.97
2019-01-19T07:52:46.235Z,99467.43
2019-01-19T07:55:18.714Z,99473.14
2019-01-19T07:57:47.562Z,99469.41
2019-01-19T08:00:19.114Z,99478.59
2019-01-19T08:02:48.007Z,99483.39
2019-01-19T08:05:16.788Z,99484.83
2019-01-19T08:07:45.684Z,99485.34
2019-01-19T08:10:17.173Z,99493.89
2019-01-19T08:12:46.315Z,99500.08
2019-01-19T08:15:23.924Z,99503.34
2019-01-19T08:17:52.717Z,99503.02
2019-01-19T08:20:21.685Z,99507.47
2019-01-19T08:22:50.594Z,99506.19
2019-01-19T08:25:19.430Z,99508.35
2019-01-19T08:27:49.706Z,99521.66
2019-01-19T08:30:26.895Z,99528.32
2019-01-19T08:32:55.785Z,99529.27
2019-01-19T08:35:24.934Z,99532.31
2019-01-19T08:37:53.912Z,99539.28
2019-01-19T08:40:36.077Z,99540.66
2019-01-19T08:43:06.600Z,99536.19
2019-01-19T08:45:35.595Z,99548.66
2019-01-19T08:48:04.735Z,99551.67
2019-01-19T08:50:33.577Z,99551.06
2019-01-19T08:53:02.372Z,99557.72
2019-01-19T08:55:31.112Z,99560.53
2019-01-19T08:58:00.075Z,99559.59
2019-01-19T09:00:28.834Z,99563.86
2019-01-19T09:02:57.621Z,99576.19
2019-01-19T09:05:26.619Z,99575.43
2019-01-19T09:07:55.409Z,99579.99
2019-01-19T09:10:24.149Z,99575.75
2019-01-19T09:12:54.537Z,99577.17
2019-01-19T09:15:24.815Z,99587.31
2019-01-19T09:17:53.635Z,99592.25
2019-01-19T09:20:22.565Z,99590.16
2019-01-19T09:22:52.950Z,99590.73
2019-01-19T09:25:21.732Z,99588.95
2019-01-19T09:27:50.642Z,99588.92
2019-01-19T09:30:25.891Z,99601.63
2019-01-19T09:32:55.388Z,99608.20
2019-01-19T09:35:24.149Z,99602.25
2019-01-19T09:37:52.944Z,99595.00
2019-01-19T09:40:22.039Z,99588.27
2019-01-19T09:42:50.787Z,99577.69
2019-01-19T09:45:20.819Z,99583.30
2019-01-19T09:47:49.612Z,99584.55
2019-01-19T09:50:20.056Z,99570.84
2019-01-19T09:52:48.851Z,99563.89
2019-01-19T09:55:17.648Z,99563.61
2019-01-19T09:57:46.631Z,99572.69
2019-01-19T10:00:21.150Z,99570.62
2019-01-19T10:02:50.961Z,99569.88
2019-01-19T10:05:27.227Z,99570.81
2019-01-19T10:07:56.458Z,99575.70
2019-01-19T10:10:25.418Z,99569.63
2019-01-19T10:12:54.205Z,99577.25
2019-01-19T10:15:23.504Z,99575.67
2019-01-19T10:17:52.293Z,99571.69
2019-01-19T10:20:26.709Z,99577.98
2019-01-19T10:22:55.615Z,99577.94
2019-01-19T10:25:24.392Z,99579.39
2019-01-19T10:27:53.238Z,99572.37
2019-01-19T10:30:29.239Z,99567.19
2019-01-19T10:32:58.085Z,99568.09
2019-01-19T10:35:27.016Z,99565.08
2019-01-19T10:37:56.879Z,99564.77
2019-01-19T10:40:25.926Z,99550.27
2019-01-19T10:42:54.933Z,99551.67
2019-01-19T10:45:28.189Z,99562.69
2019-01-19T10:47:57.019Z,99566.13
2019-01-19T10:50:25.787Z,99565.45
2019-01-19T10:52:54.679Z,99562.24
2019-01-19T10:55:24.429Z,99558.71
2019-01-19T10:57:53.489Z,99579.26
2019-01-19T11:00:24.935Z,99570.89
2019-01-19T11:02:54.077Z,99576.45
2019-01-19T11:05:23.225Z,99569.30
2019-01-19T11:07:52.318Z,99572.70
2019-01-19T11:10:26.127Z,99578.97
2019-01-19T11:12:54.917Z,99578.09
2019-01-19T11:15:23.804Z,99570.45
2019-01-19T11:17:52.801Z,99579.42
2019-01-19T11:20:26.193Z,99587.61
2019-01-19T11:22:55.700Z,99588.34
2019-01-19T11:25:24.489Z,99576.69
2019-01-19T11:27:53.277Z,99576.38
2019-01-19T11:30:27.286Z,99583.45
2019-01-19T11:32:56.082Z,99577.40
2019-01-19T11:35:24.821Z,99581.47
2019-01-19T11:37:53.652Z,99584.41
2019-01-19T11:40:31.251Z,99591.44
2019-01-19T11:43:00.240Z,99587.03
2019-01-19T11:45:29.033Z,99590.64
2019-01-19T11:47:57.826Z,99595.13
2019-01-19T11:50:27.216Z,99581.08
2019-01-19T11:52:55.962Z,99589.84
2019-01-19T11:55:24.894Z,99592.69
2019-01-19T11:57:56.369Z,99590.30
2019-01-19T12:00:30.612Z,99588.63
2019-01-19T12:02:59.452Z,99598.26
2019-01-19T12:05:28.446Z,99591.07
2019-01-19T12:07:57.233Z,99596.31
2019-01-19T12:10:28.378Z,99602.20
2019-01-19T12:12:57.749Z,99597.63
2019-01-19T12:15:26.879Z,99597.58
2019-01-19T12:17:55.970Z,99594.51
2019-01-19T12:20:33.390Z,99588.49
2019-01-19T12:23:02.146Z,99591.30
2019-01-19T12:25:30.937Z,99589.57
2019-01-19T12:27:59.829Z,99590.84
2019-01-19T12:30:33.207Z,99587.13
2019-01-19T12:33:02.011Z,99586.84
2019-01-19T12:35:30.893Z,99583.09
2019-01-19T12:38:00.647Z,99591.69
2019-01-19T12:40:30.629Z,99595.73
2019-01-19T12:43:02.172Z,99591.97
2019-01-19T12:45:42.986Z,99596.95
2019-01-19T12:48:11.981Z,99590.44
2019-01-19T12:50:42.370Z,99599.52
2019-01-19T12:53:11.157Z,99595.32
2019-01-19T12:55:40.047Z,99585.14
2019-01-19T12:58:09.793Z,99584.32
2019-01-19T13:00:38.694Z,99583.78
2019-01-19T13:03:08.920Z,99577.27
2019-01-19T13:05:49.676Z,99584.27
2019-01-19T13:08:21.497Z,99583.55
2019-01-19T13:10:58.993Z,99588.17
2019-01-19T13:13:28.185Z,99583.88
2019-01-19T13:16:02.711Z,99598.72
2019-01-19T13:18:51.362Z,99593.20
2019-01-19T13:21:38.071Z,99586.27
2019-01-19T13:24:15.409Z,99593.06
2019-01-19T13:27:06.649Z,99597.95
2019-01-19T13:29:47.557Z,99591.38
2019-01-19T13:32:34.465Z,99590.66
2019-01-19T13:35:25.723Z,99598.30
2019-01-19T13:38:15.454Z,99597.48
2019-01-19T13:40:58.988Z,99595.53
2019-01-19T13:43:48.155Z,99598.84
2019-01-19T13:46:44.285Z,99591.66
2019-01-19T13:49:37.341Z,99599.03
2019-01-19T13:52:09.246Z,99602.34
2019-01-19T13:54:43.934Z,99605.98
2019-01-19T13:57:28.383Z,99609.84
2019-01-19T14:00:18.762Z,99613.42
2019-01-19T14:03:13.745Z,99602.19
2019-01-19T14:05:51.479Z,99597.98
2019-01-19T14:08:59.884Z,99610.75
2019-01-19T14:11:53.986Z,99606.36
2019-01-19T14:14:47.955Z,99610.08
2019-01-19T14:17:37.634Z,99605.64
2019-01-19T14:20:24.326Z,99603.23
2019-01-19T14:23:11.255Z,99603.91
2019-01-19T14:26:00.115Z,99599.30
2019-01-19T14:28:34.637Z,99594.89
2019-01-19T14:31:29.244Z,99593.50
2019-01-19T14:34:19.112Z,99591.55
2019-01-19T14:36:56.709Z,99588.38
2019-01-19T14:39:31.434Z,99580.47
2019-01-19T14:42:19.355Z,99586.80
2019-01-19T14:44:54.099Z,99586.03
2019-01-19T14:47:31.387Z,99585.75
2019-01-19T14:50:28.435Z,99586.91
2019-01-19T14:53:16.788Z,99594.55
2019-01-19T14:55:57.245Z,99602.73
2019-01-19T14:58:31.560Z,99607.22
2019-01-19T15:01:06.042Z,99606.36
2019-01-19T15:03:43.783Z,99606.17
2019-01-19T15:06:27.622Z,99613.99
2019-01-19T15:09:17.717Z,99610.66
2019-01-19T15:11:52.136Z,99612.47
2019-01-19T15:14:26.860Z,99597.53
2019-01-19T15:17:04.553Z,99602.23
2019-01-19T15:19:58.943Z,99593.79
2019-01-19T15:22:45.857Z,99594.63
2019-01-19T15:25:42.173Z,99594.12
2019-01-19T15:28:16.801Z,99596.24
2019-01-19T15:30:48.574Z,99605.84
2019-01-19T15:33:26.064Z,99609.30
2019-01-19T15:36:06.752Z,99604.88
2019-01-19T15:38:41.356Z,99606.22
2019-01-19T15:41:28.039Z,99607.19
2019-01-19T15:44:05.482Z,99610.50
2019-01-19T15:46:56.873Z,99610.19
2019-01-19T15:49:46.348Z,99599.34
2019-01-19T15:52:33.468Z,99610.78
2019-01-19T15:55:17.100Z,99601.91
2019-01-19T15:57:58.178Z,99609.22
2019-01-19T16:00:47.950Z,99606.16
2019-01-19T16:03:25.144Z,99603.99
2019-01-19T16:06:16.561Z,99615.43
2019-01-19T16:08:57.276Z,99608.77
2019-01-19T16:11:37.278Z,99611.76
2019-01-19T16:14:18.047Z,99614.97
2019-01-19T16:16:55.439Z,99618.36
2019-01-19T16:19:59.354Z,99621.06
2019-01-19T16:22:40.026Z,99624.91
2019-01-19T16:25:20.888Z,99623.62
2019-01-19T16:27:58.177Z,99624.94
2019-01-19T16:30:41.815Z,99626.29
2019-01-19T16:33:37.745Z,99624.25
2019-01-19T16:36:12.271Z,99619.47
2019-01-19T16:39:08.289Z,99622.11
2019-01-19T16:41:52.131Z,99623.44
2019-01-19T16:44:38.964Z,99626.75
2019-01-19T16:47:20.221Z,99624.28
2019-01-19T16:49:54.644Z,99617.50
2019-01-19T16:52:35.445Z,99617.50
2019-01-19T16:55:19.455Z,99623.77
2019-01-19T16:57:51.624Z,99625.93
2019-01-19T17:00:29.426Z,99626.84
2019-01-19T17:03:07.118Z,99630.69
2019-01-19T17:05:47.242Z,99630.31
2019-01-19T17:08:35.863Z,99634.00
2019-01-19T17:11:19.769Z,99633.02
2019-01-19T17:14:06.683Z,99629.62
2019-01-19T17:16:38.439Z,99632.39
2019-01-19T17:19:10.194Z,99631.09
2019-01-19T17:21:57.317Z,99646.48
2019-01-19T17:24:52.419Z,99636.62
2019-01-19T17:27:32.860Z,99644.93
2019-01-19T17:30:13.755Z,99645.70
2019-01-19T17:32:51.040Z,99649.55
2019-01-19T17:35:34.884Z,99650.20
2019-01-19T17:38:09.211Z,99649.34
2019-01-19T17:41:06.966Z,99648.64
2019-01-19T17:44:00.050Z,99645.88
2019-01-19T17:46:35.064Z,99639.15
2019-01-19T17:49:27.877Z,99634.48
2019-01-19T17:52:31.719Z,99633.16
2019-01-19T17:55:09.390Z,99638.70
2019-01-19T17:57:41.175Z,99644.02
2019-01-19T18:00:24.991Z,99645.24
2019-01-19T18:03:02.590Z,99647.70
2019-01-19T18:05:43.155Z,99646.80
2019-01-19T18:08:23.468Z,99642.69
2019-01-19T18:11:07.218Z,99633.91
2019-01-19T18:14:07.710Z,99640.55
2019-01-19T18:16:58.822Z,99640.95
2019-01-19T18:19:33.153Z,99647.02
2019-01-19T18:22:38.333Z,99649.50
2019-01-19T18:25:35.884Z,99637.38
2019-01-19T18:28:22.346Z,99648.56
2019-01-19T18:31:02.801Z,99639.31
2019-01-19T18:33:43.617Z,99645.17
2019-01-19T18:36:21.351Z,99640.09
2019-01-19T18:38:53.040Z,99634.00
2019-01-19T18:41:31.505Z,99640.71
2019-01-19T18:44:06.102Z,99640.71
2019-01-19T18:46:41.533Z,99639.86
2019-01-19T18:49:16.329Z,99628.47
2019-01-19T18:51:51.177Z,99628.47
2019-01-19T18:54:48.015Z,99633.54
2019-01-19T18:57:31.754Z,99643.08
2019-01-19T19:00:23.919Z,99645.33
2019-01-19T19:02:58.616Z,99640.09
2019-01-19T19:05:36.008Z,99643.94
2019-01-19T19:08:16.572Z,99644.40
2019-01-19T19:11:00.616Z,99647.50
2019-01-19T19:13:35.129Z,99645.78
2019-01-19T19:16:19.530Z,99642.47
2019-01-19T19:19:09.472Z,99644.19
2019-01-19T19:22:05.080Z,99652.50
2019-01-19T19:24:51.581Z,99657.20
2019-01-19T19:27:39.677Z,99647.17
2019-01-19T19:30:23.297Z,99646.48
2019-01-19T19:33:13.260Z,99651.43
2019-01-19T19:36:07.547Z,99645.94
2019-01-19T19:38:44.792Z,99654.83
2019-01-19T19:41:16.694Z,99643.63
2019-01-19T19:44:18.256Z,99655.70
2019-01-19T19:46:52.788Z,99643.91
2019-01-19T19:49:33.009Z,99647.61
2019-01-19T19:52:02.661Z,99654.62
2019-01-19T19:54:31.798Z,99643.63
2019-01-19T19:57:01.139Z,99656.95
2019-01-19T19:59:29.937Z,99661.36
2019-01-19T20:01:58.714Z,99657.56
2019-01-19T20:04:27.913Z,99653.07
2019-01-19T20:06:57.593Z,99661.64
2019-01-19T20:09:26.332Z,99662.01
2019-01-19T20:11:56.737Z,99594.16
2019-01-19T20:14:25.723Z,99663.73
2019-01-19T20:16:54.470Z,99663.59
2019-01-19T20:19:23.301Z,99664.66
2019-01-19T20:21:52.093Z,99664.61
2019-01-19T20:24:20.880Z,99667.44
2019-01-19T20:26:49.663Z,99661.99
2019-01-19T20:29:18.652Z,99668.67
2019-01-19T20:31:47.397Z,99665.68
2019-01-19T20:34:16.233Z,99660.73
2019-01-19T20:36:45.534Z,99667.06
2019-01-19T20:39:14.271Z,99663.34
2019-01-19T20:41:43.208Z,99657.05
2019-01-19T20:44:11.988Z,99653.56
2019-01-19T20:46:40.788Z,99648.94
2019-01-19T20:49:09.531Z,99654.42
2019-01-19T20:51:38.466Z,99646.27
2019-01-19T20:54:08.793Z,99649.86
2019-01-19T20:56:38.993Z,99648.41
2019-01-19T20:59:07.804Z,99650.11
2019-01-19T21:01:36.542Z,99653.96
2019-01-19T21:04:05.385Z,99642.17
2019-01-19T21:06:34.679Z,99634.53
2019-01-19T21:09:06.539Z,99635.63
2019-01-19T21:11:35.327Z,99655.12
2019-01-19T21:14:04.344Z,99635.63
2019-01-19T21:16:33.111Z,99643.78
2019-01-19T21:19:01.903Z,99640.79
2019-01-19T21:21:30.794Z,99636.45
2019-01-19T21:23:59.784Z,99637.93
2019-01-19T21:26:28.570Z,99638.62
2019-01-19T21:28:57.559Z,99633.55
2019-01-19T21:31:26.348Z,99630.16
2019-01-19T21:33:55.134Z,99632.08
2019-01-19T21:36:23.934Z,99636.62
2019-01-19T21:38:52.681Z,99636.78
2019-01-19T21:41:21.426Z,99636.33
2019-01-19T21:43:53.299Z,99623.68
2019-01-19T21:46:23.598Z,99623.68
2019-01-19T21:48:52.373Z,99629.08
2019-01-19T21:51:21.366Z,99629.08
2019-01-19T21:53:50.361Z,99640.47
2019-01-19T21:56:19.146Z,99623.44
2019-01-19T21:58:48.045Z,99622.91
2019-01-19T22:01:16.824Z,99612.51
2019-01-19T22:03:45.570Z,99612.67
2019-01-19T22:06:14.399Z,99612.67
2019-01-19T22:08:43.141Z,99609.27
2019-01-19T22:11:13.410Z,99603.09
2019-01-19T22:13:43.739Z,99602.72
2019-01-19T22:16:12.524Z,99601.86
2019-01-19T22:18:41.269Z,99601.86
2019-01-19T22:21:10.225Z,99599.09
2019-01-19T22:23:40.529Z,99595.28
2019-01-19T22:26:10.834Z,99595.28
2019-01-19T22:28:39.841Z,99597.77
2019-01-19T22:31:08.631Z,99586.41
2019-01-19T22:33:37.623Z,99574.58
2019-01-19T22:36:07.497Z,99574.58
2019-01-19T22:38:36.449Z,99566.45
2019-01-19T22:41:05.294Z,99572.17
2019-01-19T22:43:34.182Z,99568.95
2019-01-19T22:46:02.935Z,99572.03
2019-01-19T22:48:31.677Z,99576.91
2019-01-19T22:51:00.482Z,99569.11
2019-01-19T22:53:29.260Z,99563.16
2019-01-19T22:55:59.838Z,99565.66
2019-01-19T22:58:28.682Z,99566.83
2019-01-19T23:01:16.927Z,99568.08
2019-01-19T23:03:45.817Z,99558.91
2019-01-19T23:06:14.607Z,99560.98
2019-01-19T23:08:43.499Z,99562.64
2019-01-19T23:11:12.383Z,99568.45
2019-01-19T23:13:41.179Z,99549.30
2019-01-19T23:16:09.973Z,99547.95
2019-01-19T23:18:38.761Z,99535.99
2019-01-19T23:21:07.541Z,99535.48
2019-01-19T23:23:36.326Z,99542.13
2019-01-19T23:26:05.114Z,99532.77
2019-01-19T23:28:33.862Z,99531.23
2019-01-19T23:31:02.603Z,99529.80
2019-01-19T23:33:31.478Z,99531.83
2019-01-19T23:36:00.226Z,99529.92
2019-01-19T23:38:29.054Z,99522.31
2019-01-19T23:40:57.848Z,99516.39
2019-01-19T23:43:26.591Z,99515.45
2019-01-19T23:45:55.419Z,99519.16
2019-01-19T23:48:24.619Z,99518.25
2019-01-19T23:50:53.509Z,99518.88
2019-01-19T23:53:22.298Z,99514.40
2019-01-19T23:55:51.510Z,99505.68
2019-01-19T23:58:20.324Z,99516.48
